Terminal Aerodrome Forecast
Issued by NWS

Home | Current Version | Previous Version | Text Only | Print | Product List | Glossary On
Versions: 1 2 3 4 5 6 7 8 9 10 11 12 13 14 15 16 17
835
FTUS44 KJAN 212321
TAFGTR
TAF
KGTR 212321Z 2200/2224 16008KT P6SM VCTS BKN035CB
     FM220300 17011G20KT P6SM VCSH BKN025
     FM221100 17009KT P6SM VCSH BKN015
     FM221500 18010G18KT P6SM BKN025
     FM221800 18010G20KT P6SM BKN035=

USA.gov is the U.S. government's official web portal to all federal, state and local government web resources and services.